createdAt,value
2022-08-16T00:03:45.033Z,57.56
2022-08-16T00:08:46.849Z,58.08
2022-08-16T00:13:53.322Z,58.28
2022-08-16T00:18:57.012Z,58.26
2022-08-16T00:24:04.809Z,58.16
2022-08-16T00:29:07.278Z,58.55
2022-08-16T00:34:09.660Z,58.37
2022-08-16T00:39:20.529Z,58.54
2022-08-16T00:44:23.356Z,58.21
2022-08-16T00:49:39.219Z,58.68
2022-08-16T00:54:42.058Z,58.72
2022-08-16T00:59:54.760Z,58.74
2022-08-16T01:05:09.730Z,58.59
2022-08-16T01:10:16.109Z,58.63
2022-08-16T01:15:19.342Z,58.80
2022-08-16T01:20:30.640Z,58.98
2022-08-16T01:25:42.285Z,59.03
2022-08-16T01:30:53.490Z,59.22
2022-08-16T01:36:09.367Z,58.79
2022-08-16T01:41:25.779Z,59.19
2022-08-16T01:46:41.167Z,59.20
2022-08-16T01:51:58.579Z,59.19
2022-08-16T01:57:25.391Z,59.19
2022-08-16T02:02:30.011Z,58.79
2022-08-16T02:07:33.096Z,59.01
2022-08-16T02:12:40.116Z,58.98
2022-08-16T02:18:01.253Z,59.13
2022-08-16T02:23:06.340Z,59.39
2022-08-16T02:28:08.232Z,58.97
2022-08-16T02:33:11.996Z,59.11
2022-08-16T02:38:13.998Z,59.34
2022-08-16T02:43:18.313Z,59.45
2022-08-16T02:48:28.983Z,59.28
2022-08-16T02:53:37.148Z,59.51
2022-08-16T02:58:39.841Z,59.50
2022-08-16T03:04:41.292Z,59.47
2022-08-16T03:09:10.691Z,59.69
2022-08-16T03:14:21.227Z,59.53
2022-08-16T03:19:48.477Z,59.59
2022-08-16T03:24:58.928Z,59.83
2022-08-16T03:30:20.874Z,59.53
2022-08-16T03:35:36.336Z,59.65
2022-08-16T03:41:04.054Z,59.56
2022-08-16T03:46:45.038Z,59.55
2022-08-16T03:51:40.463Z,59.83
2022-08-16T03:56:57.151Z,59.80
2022-08-16T04:02:10.592Z,59.75
2022-08-16T04:07:16.147Z,59.53
2022-08-16T04:12:52.994Z,59.16
2022-08-16T04:17:42.404Z,59.39
2022-08-16T04:22:45.702Z,59.01
2022-08-16T04:27:54.321Z,59.20
2022-08-16T04:32:58.775Z,58.71
2022-08-16T04:38:20.582Z,58.61
2022-08-16T04:43:24.039Z,58.37
2022-08-16T04:48:28.396Z,58.22
2022-08-16T04:53:41.496Z,58.48
2022-08-16T04:58:46.874Z,58.07
2022-08-16T05:04:00.407Z,57.70
2022-08-16T05:09:19.225Z,57.49
2022-08-16T05:14:46.632Z,57.49
2022-08-16T05:19:57.466Z,57.41
2022-08-16T05:25:14.147Z,57.36
2022-08-16T05:30:35.604Z,57.50
2022-08-16T05:35:55.381Z,57.32
2022-08-16T05:41:17.175Z,57.40
2022-08-16T05:46:29.781Z,57.20
2022-08-16T05:51:47.386Z,57.44
2022-08-16T05:56:57.968Z,57.08
2022-08-16T06:02:03.208Z,57.26
2022-08-16T06:07:24.749Z,56.70
2022-08-16T06:12:39.924Z,56.71
2022-08-16T06:17:44.494Z,56.69
2022-08-16T06:23:03.643Z,56.32
2022-08-16T06:28:35.742Z,56.27
2022-08-16T06:33:45.121Z,56.07
2022-08-16T06:38:55.673Z,55.82
2022-08-16T06:44:21.387Z,55.62
2022-08-16T06:49:34.413Z,55.68
2022-08-16T06:54:38.095Z,55.52
2022-08-16T06:59:52.298Z,55.12
2022-08-16T07:04:58.441Z,54.95
2022-08-16T07:10:00.961Z,54.83
2022-08-16T07:15:17.062Z,54.28
2022-08-16T07:20:29.878Z,54.27
2022-08-16T07:25:40.247Z,54.45
2022-08-16T07:30:47.143Z,54.04
2022-08-16T07:36:09.658Z,53.59
2022-08-16T07:41:18.693Z,53.62
2022-08-16T07:46:39.298Z,53.05
2022-08-16T07:51:57.328Z,53.05
2022-08-16T07:57:04.758Z,52.76
2022-08-16T08:02:12.043Z,52.65
2022-08-16T08:07:16.752Z,52.63
2022-08-16T08:12:32.663Z,52.03
2022-08-16T08:17:44.071Z,51.35
2022-08-16T08:22:54.143Z,51.14
2022-08-16T08:28:06.941Z,50.98
2022-08-16T08:33:16.799Z,51.08
2022-08-16T08:38:44.035Z,50.64
2022-08-16T08:43:43.114Z,50.57
2022-08-16T08:48:59.032Z,50.26
2022-08-16T08:54:09.712Z,50.56
2022-08-16T08:59:20.484Z,50.03
2022-08-16T09:04:24.441Z,49.71
2022-08-16T09:09:33.547Z,49.36
2022-08-16T09:14:51.130Z,49.39
2022-08-16T09:20:02.816Z,48.59
2022-08-16T09:25:11.421Z,48.33
2022-08-16T09:30:33.739Z,48.18
2022-08-16T09:35:39.046Z,47.58
2022-08-16T09:40:44.109Z,47.57
2022-08-16T09:45:47.032Z,47.13
2022-08-16T09:50:50.964Z,46.88
2022-08-16T09:55:59.348Z,46.22
2022-08-16T10:01:01.331Z,46.04
2022-08-16T10:06:03.399Z,46.16
2022-08-16T10:11:24.780Z,45.99
2022-08-16T10:16:27.741Z,46.20
2022-08-16T10:21:32.089Z,45.99
2022-08-16T10:27:03.719Z,46.17
2022-08-16T10:31:57.475Z,45.60
2022-08-16T10:37:03.773Z,45.70
2022-08-16T10:42:06.726Z,45.69
2022-08-16T10:47:11.781Z,45.46
2022-08-16T10:52:18.236Z,45.15
2022-08-16T10:57:21.317Z,45.40
2022-08-16T11:02:58.056Z,44.68
2022-08-16T11:07:52.174Z,44.48
2022-08-16T11:12:56.448Z,44.21
2022-08-16T11:23:21.544Z,43.97
2022-08-16T11:33:52.876Z,43.87
2022-08-16T11:39:00.360Z,43.36
2022-08-16T11:44:03.356Z,42.73
2022-08-16T11:49:11.273Z,42.48
2022-08-16T11:54:22.290Z,42.11
2022-08-16T11:59:30.267Z,41.98
2022-08-16T12:04:35.972Z,41.33
2022-08-16T12:09:43.226Z,40.88
2022-08-16T12:14:45.717Z,40.92
2022-08-16T12:19:48.200Z,40.95
2022-08-16T12:24:53.754Z,40.61
2022-08-16T12:29:58.516Z,40.42
2022-08-16T12:35:01.739Z,40.21
2022-08-16T12:40:21.318Z,39.83
2022-08-16T12:45:30.929Z,39.80
2022-08-16T12:50:33.499Z,39.50
2022-08-16T12:55:42.070Z,39.70
2022-08-16T13:00:48.972Z,39.38
2022-08-16T13:05:55.455Z,39.18
2022-08-16T13:10:59.851Z,39.07
2022-08-16T13:16:15.275Z,38.75
2022-08-16T13:21:24.155Z,38.54
2022-08-16T13:26:28.381Z,38.19
2022-08-16T13:31:30.397Z,38.10
2022-08-16T13:36:48.496Z,38.03
2022-08-16T13:41:54.495Z,37.98
2022-08-16T13:46:57.564Z,37.92
2022-08-16T13:52:00.050Z,37.42
2022-08-16T13:57:02.997Z,37.47
2022-08-16T14:02:08.666Z,37.40
2022-08-16T14:07:19.851Z,37.63
2022-08-16T14:12:33.813Z,37.58
2022-08-16T14:18:14.857Z,37.71
2022-08-16T14:22:58.394Z,37.67
2022-08-16T14:28:03.454Z,37.55
2022-08-16T14:33:10.488Z,37.63
2022-08-16T14:38:13.412Z,37.13
2022-08-16T14:43:20.207Z,37.34
2022-08-16T14:48:26.340Z,36.81
2022-08-16T14:53:32.637Z,36.78
2022-08-16T14:58:38.154Z,36.82
2022-08-16T15:03:42.307Z,36.90
2022-08-16T15:08:47.010Z,36.77
2022-08-16T15:13:49.888Z,36.44
2022-08-16T15:18:53.938Z,36.34
2022-08-16T15:23:57.380Z,36.31
2022-08-16T15:28:59.279Z,36.67
2022-08-16T15:34:01.172Z,36.56
2022-08-16T15:39:30.472Z,36.65
2022-08-16T15:44:26.254Z,36.71
2022-08-16T15:49:37.392Z,36.51
2022-08-16T15:54:52.926Z,36.45
2022-08-16T16:00:04.301Z,36.58
2022-08-16T16:05:17.396Z,36.81
2022-08-16T16:10:19.654Z,36.58
2022-08-16T16:15:26.472Z,36.55
2022-08-16T16:20:32.594Z,36.99
2022-08-16T16:25:37.784Z,36.93
2022-08-16T16:30:45.042Z,36.84
2022-08-16T16:35:47.972Z,36.62
2022-08-16T16:41:04.974Z,36.81
2022-08-16T16:46:39.012Z,36.75
2022-08-16T16:51:40.581Z,36.82
2022-08-16T16:56:45.914Z,36.70
2022-08-16T17:01:59.093Z,37.41
2022-08-16T17:07:04.095Z,37.56
2022-08-16T17:12:20.074Z,37.86
2022-08-16T17:17:29.580Z,38.14
2022-08-16T17:27:54.563Z,39.14
2022-08-16T17:33:05.675Z,39.46
2022-08-16T17:38:09.558Z,39.50
2022-08-16T17:39:28.121Z,39.03
2022-08-16T17:43:16.488Z,40.14
2022-08-16T17:48:19.539Z,40.43
2022-08-16T17:53:22.231Z,40.68
2022-08-16T17:58:24.555Z,40.96
2022-08-16T18:03:40.812Z,41.22
2022-08-16T18:09:03.515Z,41.01
2022-08-16T18:14:06.829Z,41.02
2022-08-16T18:19:16.324Z,41.65
2022-08-16T18:24:21.387Z,41.73
2022-08-16T18:29:23.399Z,42.11
2022-08-16T18:34:25.275Z,42.38
2022-08-16T18:39:27.165Z,42.18
2022-08-16T18:44:33.340Z,42.23
2022-08-16T18:49:37.283Z,42.04
2022-08-16T18:54:58.514Z,42.13
2022-08-16T19:00:01.128Z,42.11
2022-08-16T19:05:03.157Z,42.35
2022-08-16T19:10:06.827Z,42.65
2022-08-16T19:15:20.376Z,42.43
2022-08-16T19:20:25.088Z,42.43
2022-08-16T19:25:46.613Z,42.46
2022-08-16T19:30:55.076Z,42.62
2022-08-16T19:35:56.930Z,42.63
2022-08-16T19:40:59.053Z,42.58
2022-08-16T19:46:00.858Z,42.50
2022-08-16T19:51:02.948Z,42.46
2022-08-16T19:56:05.269Z,42.47
2022-08-16T20:01:07.195Z,42.51
2022-08-16T20:06:09.105Z,42.63
2022-08-16T20:11:13.495Z,43.08
2022-08-16T20:16:16.389Z,42.70
2022-08-16T20:21:18.935Z,42.86
2022-08-16T20:26:24.892Z,42.97
2022-08-16T20:31:26.916Z,42.94
2022-08-16T20:36:29.948Z,42.97
2022-08-16T20:41:31.849Z,42.96
2022-08-16T20:46:33.723Z,43.34
2022-08-16T20:51:46.663Z,43.79
2022-08-16T20:56:52.065Z,43.95
2022-08-16T21:01:54.942Z,44.34
2022-08-16T21:06:59.378Z,44.54
2022-08-16T21:12:05.464Z,44.72
2022-08-16T21:17:08.569Z,44.61
2022-08-16T21:22:17.479Z,44.28
2022-08-16T21:27:19.401Z,43.85
2022-08-16T21:32:35.342Z,43.81
2022-08-16T21:37:38.565Z,43.76
2022-08-16T21:42:42.260Z,44.13
2022-08-16T21:47:44.290Z,44.22
2022-08-16T21:52:46.132Z,44.63
2022-08-16T21:57:48.203Z,45.03
2022-08-16T22:02:51.312Z,44.89
2022-08-16T22:07:57.178Z,45.43
2022-08-16T22:13:05.796Z,45.62
2022-08-16T22:18:07.628Z,45.26
2022-08-16T22:23:20.218Z,45.06
2022-08-16T22:28:23.443Z,44.76
2022-08-16T22:33:27.766Z,44.78
2022-08-16T22:38:55.527Z,44.54
2022-08-16T22:43:52.675Z,44.46
2022-08-16T22:48:54.694Z,44.54
2022-08-16T22:53:57.224Z,44.90
2022-08-16T22:58:59.657Z,44.67
2022-08-16T23:04:02.465Z,44.86
2022-08-16T23:09:04.393Z,44.88
2022-08-16T23:14:06.388Z,45.00
2022-08-16T23:19:12.532Z,44.83
2022-08-16T23:24:15.807Z,44.89
2022-08-16T23:29:24.936Z,45.05
2022-08-16T23:34:28.683Z,45.26
2022-08-16T23:39:30.568Z,45.20
2022-08-16T23:44:56.743Z,45.55
2022-08-16T23:50:00.942Z,46.06
2022-08-16T23:55:05.859Z,46.22
